createdAt,value
2022-09-28T00:01:02.112Z,21.50
2022-09-28T00:04:10.043Z,21.00
2022-09-28T00:07:17.703Z,25.00
2022-09-28T00:10:24.963Z,22.50
2022-09-28T00:13:33.002Z,22.50
2022-09-28T00:16:40.619Z,20.90
2022-09-28T00:19:48.168Z,18.80
2022-09-28T00:22:56.213Z,20.50
2022-09-28T00:26:03.417Z,16.60
2022-09-28T00:29:11.202Z,18.10
2022-09-28T00:32:18.681Z,19.60
2022-09-28T00:35:25.829Z,18.10
2022-09-28T00:38:33.639Z,18.70
2022-09-28T00:41:41.238Z,21.40
2022-09-28T00:44:48.467Z,18.40
2022-09-28T00:47:56.411Z,20.00
2022-09-28T00:51:03.593Z,19.90
2022-09-28T00:54:12.821Z,21.20
2022-09-28T00:57:21.213Z,19.20
2022-09-28T01:00:28.586Z,18.90
2022-09-28T01:03:36.784Z,18.30
2022-09-28T01:06:43.926Z,18.70
2022-09-28T01:09:52.098Z,16.40
2022-09-28T01:12:59.736Z,17.90
2022-09-28T01:16:07.394Z,20.80
2022-09-28T01:19:15.076Z,20.10
2022-09-28T01:22:23.366Z,17.20
2022-09-28T01:25:30.648Z,16.70
2022-09-28T01:28:38.648Z,14.70
2022-09-28T01:31:46.687Z,16.90
2022-09-28T01:34:53.909Z,18.90
2022-09-28T01:38:01.542Z,22.10
2022-09-28T01:41:09.041Z,20.20
2022-09-28T01:44:16.672Z,17.60
2022-09-28T01:47:24.579Z,21.20
2022-09-28T01:50:32.062Z,17.50
2022-09-28T01:53:39.553Z,18.20
2022-09-28T01:56:47.484Z,18.60
2022-09-28T01:59:54.933Z,16.70
2022-09-28T02:03:02.674Z,19.30
2022-09-28T02:06:10.335Z,20.40
2022-09-28T02:09:18.214Z,24.90
2022-09-28T02:12:25.406Z,24.00
2022-09-28T02:15:33.075Z,27.00
2022-09-28T02:18:41.148Z,28.70
2022-09-28T02:21:48.767Z,31.50
2022-09-28T02:24:56.268Z,28.20
2022-09-28T02:28:03.839Z,29.10
2022-09-28T02:31:11.361Z,30.00
2022-09-28T02:34:19.390Z,34.20
2022-09-28T02:37:27.320Z,29.30
2022-09-28T02:40:34.511Z,31.20
2022-09-28T02:43:42.471Z,38.70
2022-09-28T02:46:50.312Z,30.40
2022-09-28T02:49:57.943Z,38.00
2022-09-28T02:53:05.844Z,31.30
2022-09-28T02:56:13.204Z,29.90
2022-09-28T02:59:21.314Z,29.10
2022-09-28T03:02:29.399Z,24.80
2022-09-28T03:05:36.594Z,24.80
2022-09-28T03:08:44.465Z,28.40
2022-09-28T03:11:51.907Z,32.40
2022-09-28T03:14:59.418Z,26.60
2022-09-28T03:18:07.458Z,29.20
2022-09-28T03:21:15.017Z,26.30
2022-09-28T03:24:22.571Z,21.60
2022-09-28T03:27:30.409Z,22.20
2022-09-28T03:30:37.622Z,25.20
2022-09-28T03:33:45.448Z,20.60
2022-09-28T03:36:52.957Z,25.40
2022-09-28T03:40:00.571Z,29.20
2022-09-28T03:43:08.569Z,25.70
2022-09-28T03:46:16.266Z,24.70
2022-09-28T03:49:23.824Z,25.50
2022-09-28T03:52:31.823Z,22.80
2022-09-28T03:55:39.824Z,22.80
2022-09-28T03:58:47.574Z,21.00
2022-09-28T04:01:55.700Z,22.30
2022-09-28T04:05:02.917Z,19.00
2022-09-28T04:08:10.734Z,19.70
2022-09-28T04:11:18.457Z,19.00
2022-09-28T04:14:26.105Z,18.40
2022-09-28T04:17:39.211Z,18.50
2022-09-28T04:20:36.799Z,20.70
2022-09-28T04:23:44.489Z,18.60
2022-09-28T04:26:52.129Z,16.40
2022-09-28T04:30:00.145Z,17.10
2022-09-28T04:33:07.845Z,18.80
2022-09-28T04:36:15.453Z,16.90
2022-09-28T04:39:23.443Z,17.50
2022-09-28T04:42:30.962Z,20.20
2022-09-28T04:45:38.504Z,15.10
2022-09-28T04:48:46.181Z,20.40
2022-09-28T04:51:53.370Z,19.80
2022-09-28T04:55:01.342Z,19.30
2022-09-28T04:58:09.216Z,22.60
2022-09-28T05:01:16.438Z,20.30
2022-09-28T05:04:26.170Z,25.00
2022-09-28T05:07:34.464Z,21.50
2022-09-28T05:10:41.669Z,25.40
2022-09-28T05:13:49.602Z,24.60
2022-09-28T05:16:57.211Z,29.50
2022-09-28T05:20:04.902Z,30.20
2022-09-28T05:23:12.939Z,27.50
2022-09-28T05:26:20.551Z,28.90
2022-09-28T05:29:32.055Z,30.20
2022-09-28T05:32:29.872Z,26.90
2022-09-28T05:35:37.824Z,28.40
2022-09-28T05:38:45.712Z,26.00
2022-09-28T05:41:53.553Z,28.60
2022-09-28T05:45:01.803Z,31.10
2022-09-28T05:48:09.724Z,33.20
2022-09-28T05:51:17.655Z,30.60
2022-09-28T05:54:25.485Z,33.70
2022-09-28T05:57:33.374Z,35.90
2022-09-28T06:00:41.256Z,35.30
2022-09-28T06:03:49.066Z,36.40
2022-09-28T06:06:56.967Z,33.60
2022-09-28T06:10:04.668Z,37.30
2022-09-28T06:13:13.477Z,31.80
2022-09-28T06:16:20.951Z,36.60
2022-09-28T06:19:29.225Z,34.60
2022-09-28T06:22:37.271Z,38.80
2022-09-28T06:25:44.741Z,37.40
2022-09-28T06:28:53.013Z,36.90
2022-09-28T06:32:00.920Z,33.60
2022-09-28T06:35:08.314Z,33.10
2022-09-28T06:38:16.301Z,36.20
2022-09-28T06:41:24.175Z,37.00
2022-09-28T06:44:31.755Z,33.10
2022-09-28T06:47:40.029Z,38.20
2022-09-28T06:50:47.445Z,39.30
2022-09-28T06:53:55.626Z,37.60
2022-09-28T06:57:03.877Z,42.30
2022-09-28T07:00:11.295Z,39.20
2022-09-28T07:03:19.568Z,38.90
2022-09-28T07:06:27.929Z,33.90
2022-09-28T07:09:41.427Z,33.10
2022-09-28T07:12:40.469Z,29.80
2022-09-28T07:15:48.568Z,30.60
2022-09-28T07:18:56.071Z,22.80
2022-09-28T07:22:05.643Z,27.70
2022-09-28T07:25:13.632Z,22.20
2022-09-28T07:28:21.526Z,20.40
2022-09-28T07:31:29.525Z,20.00
2022-09-28T07:34:37.244Z,20.20
2022-09-28T07:37:44.791Z,19.10
2022-09-28T07:40:52.500Z,15.80
2022-09-28T07:44:00.616Z,18.00
2022-09-28T07:47:08.339Z,17.40
2022-09-28T07:50:15.856Z,12.10
2022-09-28T07:53:23.727Z,13.40
2022-09-28T07:56:31.567Z,14.20
2022-09-28T07:59:39.150Z,17.70
2022-09-28T08:02:46.750Z,12.00
2022-09-28T08:05:54.439Z,9.60
2022-09-28T08:09:01.920Z,9.80
2022-09-28T08:12:09.495Z,12.10
2022-09-28T08:15:17.022Z,8.10
2022-09-28T08:18:25.031Z,8.70
2022-09-28T08:21:32.541Z,7.00
2022-09-28T08:24:40.124Z,7.80
2022-09-28T08:27:47.957Z,7.70
2022-09-28T08:30:55.275Z,5.90
2022-09-28T08:34:03.196Z,8.70
2022-09-28T08:37:10.715Z,6.50
2022-09-28T08:40:17.944Z,7.60
2022-09-28T08:43:25.888Z,6.90
2022-09-28T08:46:33.660Z,7.50
2022-09-28T08:49:41.304Z,8.50
2022-09-28T08:52:49.301Z,6.80
2022-09-28T08:55:56.628Z,8.60
2022-09-28T08:59:04.743Z,6.80
2022-09-28T09:02:12.701Z,9.30
2022-09-28T09:05:19.930Z,7.80
2022-09-28T09:08:27.934Z,5.40
2022-09-28T09:11:35.636Z,5.50
2022-09-28T09:14:43.335Z,3.80
2022-09-28T09:17:51.086Z,3.90
2022-09-28T09:20:58.606Z,4.90
2022-09-28T09:24:06.169Z,4.40
2022-09-28T09:27:14.028Z,3.90
2022-09-28T09:30:21.782Z,4.10
2022-09-28T09:33:29.397Z,3.50
2022-09-28T09:36:37.440Z,2.30
2022-09-28T09:39:45.041Z,1.60
2022-09-28T09:42:52.601Z,1.80
2022-09-28T09:46:00.381Z,2.00
2022-09-28T09:49:08.489Z,2.60
2022-09-28T09:52:16.043Z,1.80
2022-09-28T09:55:29.007Z,3.30
2022-09-28T09:58:26.804Z,3.90
2022-09-28T10:01:34.126Z,3.00
2022-09-28T10:04:42.076Z,1.00
2022-09-28T10:07:49.567Z,1.10
2022-09-28T10:10:57.024Z,0.90
2022-09-28T10:14:04.786Z,1.80
2022-09-28T10:17:12.489Z,1.30
2022-09-28T10:20:20.116Z,2.60
2022-09-28T10:23:28.162Z,0.80
2022-09-28T10:26:35.781Z,1.10
2022-09-28T10:29:43.560Z,1.90
2022-09-28T10:32:51.912Z,1.30
2022-09-28T10:35:59.423Z,1.80
2022-09-28T10:39:07.704Z,2.60
2022-09-28T10:42:15.696Z,4.50
2022-09-28T10:45:23.698Z,3.80
2022-09-28T10:48:32.162Z,2.60
2022-09-28T10:51:39.497Z,2.30
2022-09-28T10:54:47.677Z,2.20
2022-09-28T10:57:55.889Z,1.90
2022-09-28T11:01:03.442Z,1.70
2022-09-28T11:04:11.935Z,2.80
2022-09-28T11:07:20.187Z,2.40
2022-09-28T11:10:27.567Z,2.40
2022-09-28T11:13:35.733Z,3.90
2022-09-28T11:16:43.375Z,1.60
2022-09-28T11:19:50.933Z,2.40
2022-09-28T11:22:59.032Z,2.20
2022-09-28T11:26:06.558Z,3.40
2022-09-28T11:29:14.093Z,2.40
2022-09-28T11:32:22.096Z,2.40
2022-09-28T11:35:29.331Z,4.70
2022-09-28T11:38:37.269Z,3.10
2022-09-28T11:41:45.228Z,2.00
2022-09-28T11:44:53.118Z,1.90
2022-09-28T11:48:01.529Z,5.00
2022-09-28T11:51:09.242Z,1.30
2022-09-28T11:54:17.099Z,1.90
2022-09-28T11:57:24.953Z,3.20
2022-09-28T12:00:32.932Z,1.80
2022-09-28T12:03:41.117Z,4.10
2022-09-28T12:06:48.964Z,0.90
2022-09-28T12:09:56.954Z,0.80
2022-09-28T12:13:04.760Z,0.50
2022-09-28T12:16:53.495Z,2.20
2022-09-28T12:19:17.719Z,0.40
2022-09-28T12:22:25.789Z,0.40
2022-09-28T12:25:33.466Z,0.80
2022-09-28T12:28:41.937Z,0.60
2022-09-28T12:31:49.408Z,0.40
2022-09-28T12:34:57.533Z,2.10
2022-09-28T12:38:05.302Z,0.20
2022-09-28T12:41:12.824Z,0.70
2022-09-28T12:44:21.215Z,0.40
2022-09-28T12:47:28.674Z,0.40
2022-09-28T12:50:39.072Z,0.80
2022-09-28T12:53:38.137Z,0.30
2022-09-28T12:56:45.697Z,0.40
2022-09-28T12:59:53.897Z,0.80
2022-09-28T13:03:02.255Z,1.10
2022-09-28T13:06:09.790Z,0.40
2022-09-28T13:09:18.228Z,0.80
2022-09-28T13:12:26.008Z,0.50
2022-09-28T13:15:33.951Z,1.80
2022-09-28T13:18:42.160Z,1.70
2022-09-28T13:21:49.746Z,0.90
2022-09-28T13:24:57.310Z,3.10
2022-09-28T13:28:05.457Z,2.10
2022-09-28T13:31:12.708Z,1.30
2022-09-28T13:34:20.815Z,1.30
2022-09-28T13:37:28.437Z,3.40
2022-09-28T13:40:36.135Z,1.40
2022-09-28T13:43:43.748Z,1.80
2022-09-28T13:46:51.438Z,2.30
2022-09-28T13:49:59.206Z,1.10
2022-09-28T13:53:06.820Z,2.10
2022-09-28T13:56:14.311Z,2.00
2022-09-28T13:59:21.752Z,1.30
2022-09-28T14:02:29.551Z,1.60
2022-09-28T14:05:37.943Z,1.60
2022-09-28T14:08:45.824Z,1.70
2022-09-28T14:11:53.555Z,1.50
2022-09-28T14:15:01.842Z,2.00
2022-09-28T14:18:09.296Z,2.00
2022-09-28T14:21:17.698Z,2.40
2022-09-28T14:24:26.127Z,2.30
2022-09-28T14:27:33.546Z,2.10
2022-09-28T14:30:41.981Z,2.30
2022-09-28T14:33:50.111Z,1.90
2022-09-28T14:36:57.494Z,2.50
2022-09-28T14:40:05.646Z,2.60
2022-09-28T14:43:13.484Z,2.30
2022-09-28T14:44:07.904Z,1.90
2022-09-28T14:47:15.172Z,2.40
2022-09-28T14:50:23.533Z,2.20
2022-09-28T14:53:31.736Z,1.90
2022-09-28T14:56:39.343Z,2.30
2022-09-28T14:59:47.568Z,2.10
2022-09-28T15:02:55.155Z,2.60
2022-09-28T15:06:02.973Z,3.20
2022-09-28T15:09:10.609Z,2.40
2022-09-28T15:12:18.478Z,2.40
2022-09-28T15:15:25.908Z,2.10
2022-09-28T15:18:34.523Z,2.30
2022-09-28T15:21:42.400Z,1.70
2022-09-28T15:24:50.362Z,2.20
2022-09-28T15:27:57.901Z,3.40
2022-09-28T15:31:06.347Z,2.70
2022-09-28T15:34:14.380Z,2.50
2022-09-28T15:37:22.345Z,4.10
2022-09-28T15:40:30.773Z,3.30
2022-09-28T15:43:38.213Z,3.40
2022-09-28T15:46:46.356Z,3.10
2022-09-28T15:49:54.356Z,2.80
2022-09-28T15:53:01.817Z,3.70
2022-09-28T15:56:10.242Z,4.00
2022-09-28T15:59:18.278Z,4.70
2022-09-28T16:02:25.911Z,5.00
2022-09-28T16:05:34.139Z,5.20
2022-09-28T16:08:41.433Z,4.20
2022-09-28T16:11:49.792Z,6.90
2022-09-28T16:14:57.703Z,5.40
2022-09-28T16:18:04.870Z,4.70
2022-09-28T16:21:12.873Z,5.70
2022-09-28T16:24:20.571Z,5.90
2022-09-28T16:27:28.066Z,6.10
2022-09-28T16:30:36.575Z,7.00
2022-09-28T16:33:44.426Z,8.20
2022-09-28T16:36:52.150Z,7.70
2022-09-28T16:40:00.340Z,8.70
2022-09-28T16:43:07.733Z,7.70
2022-09-28T16:46:15.406Z,6.70
2022-09-28T16:49:23.000Z,5.80
2022-09-28T16:52:30.280Z,5.40
2022-09-28T16:55:40.829Z,4.70
2022-09-28T16:58:37.852Z,6.40
2022-09-28T17:01:46.142Z,5.10
2022-09-28T17:04:54.002Z,5.60
2022-09-28T17:08:01.284Z,3.90
2022-09-28T17:11:15.902Z,3.90
2022-09-28T17:14:14.644Z,4.90
2022-09-28T17:17:22.476Z,3.70
2022-09-28T17:20:30.616Z,3.70
2022-09-28T17:23:38.459Z,4.10
2022-09-28T17:26:46.209Z,4.10
2022-09-28T17:29:54.480Z,5.50
2022-09-28T17:33:01.738Z,6.50
2022-09-28T17:36:09.387Z,6.90
2022-09-28T17:39:16.556Z,4.80
2022-09-28T17:42:25.680Z,4.50
2022-09-28T17:45:33.364Z,5.50
2022-09-28T17:48:41.548Z,3.90
2022-09-28T17:51:49.501Z,4.50
2022-09-28T17:54:57.744Z,6.20
2022-09-28T17:58:04.983Z,4.00
2022-09-28T18:01:13.873Z,7.30
2022-09-28T18:04:33.189Z,6.20
2022-09-28T18:07:18.795Z,5.60
2022-09-28T18:10:26.844Z,5.20
2022-09-28T18:13:34.567Z,4.30
2022-09-28T18:16:42.258Z,5.60
2022-09-28T18:19:50.356Z,4.90
2022-09-28T18:22:58.139Z,5.10
2022-09-28T18:26:06.027Z,8.30
2022-09-28T18:29:13.360Z,7.90
2022-09-28T18:32:21.681Z,6.10
2022-09-28T18:35:29.181Z,5.90
2022-09-28T18:38:36.871Z,4.50
2022-09-28T18:41:44.582Z,4.20
2022-09-28T18:44:52.576Z,6.10
2022-09-28T18:48:00.213Z,4.50
2022-09-28T18:51:07.813Z,5.30
2022-09-28T18:54:15.215Z,8.30
2022-09-28T18:57:23.136Z,8.00
2022-09-28T19:00:30.605Z,5.90
2022-09-28T19:03:38.254Z,6.70
2022-09-28T19:06:46.288Z,6.20
2022-09-28T19:09:53.969Z,9.10
2022-09-28T19:13:01.663Z,8.40
2022-09-28T19:16:09.850Z,14.00
2022-09-28T19:19:17.190Z,16.80
2022-09-28T19:22:25.520Z,33.90
2022-09-28T19:25:33.661Z,24.00
2022-09-28T19:28:40.882Z,21.90
2022-09-28T19:31:49.022Z,10.70
2022-09-28T19:34:57.223Z,12.90
2022-09-28T19:38:05.055Z,14.10
2022-09-28T19:41:13.358Z,17.50
2022-09-28T19:44:21.496Z,16.30
2022-09-28T19:47:29.015Z,22.80
2022-09-28T19:50:37.426Z,39.10
2022-09-28T19:53:44.587Z,31.70
2022-09-28T19:56:52.627Z,17.50
2022-09-28T20:00:02.717Z,21.10
2022-09-28T20:03:10.550Z,17.40
2022-09-28T20:06:18.424Z,33.30
2022-09-28T20:09:25.990Z,39.90
2022-09-28T20:12:33.650Z,36.10
2022-09-28T20:15:41.662Z,69.60
2022-09-28T20:18:49.232Z,37.30
2022-09-28T20:21:57.084Z,28.50
2022-09-28T20:25:05.214Z,26.60
2022-09-28T20:28:12.894Z,50.80
2022-09-28T20:31:20.873Z,27.70
2022-09-28T20:34:28.678Z,19.40
2022-09-28T20:37:36.836Z,14.50
2022-09-28T20:40:44.781Z,13.00
2022-09-28T20:43:52.597Z,11.60
2022-09-28T20:47:00.778Z,11.30
2022-09-28T20:50:08.569Z,13.70
2022-09-28T20:53:16.279Z,10.70
2022-09-28T20:56:24.200Z,11.50
2022-09-28T20:59:32.031Z,11.70
2022-09-28T21:02:39.747Z,12.10
2022-09-28T21:05:48.089Z,13.20
2022-09-28T21:08:55.435Z,13.20
2022-09-28T21:12:03.674Z,13.60
2022-09-28T21:15:12.022Z,11.80
2022-09-28T21:18:19.527Z,11.60
2022-09-28T21:21:27.815Z,13.60
2022-09-28T21:24:36.015Z,12.90
2022-09-28T21:27:43.394Z,13.50
2022-09-28T21:30:51.644Z,13.60
2022-09-28T21:33:59.248Z,11.00
2022-09-28T21:37:06.389Z,11.70
2022-09-28T21:40:14.128Z,13.20
2022-09-28T21:43:21.609Z,12.20
2022-09-28T21:46:29.240Z,11.70
2022-09-28T21:49:37.409Z,13.50
2022-09-28T21:52:44.571Z,16.60
2022-09-28T21:55:52.441Z,22.20
2022-09-28T21:59:00.213Z,22.70
2022-09-28T22:02:07.363Z,30.70
2022-09-28T22:05:15.333Z,26.60
2022-09-28T22:08:22.980Z,20.90
2022-09-28T22:11:30.505Z,34.10
2022-09-28T22:14:38.344Z,34.40
2022-09-28T22:17:45.936Z,27.90
2022-09-28T22:20:53.675Z,23.40
2022-09-28T22:24:01.419Z,24.00
2022-09-28T22:27:09.157Z,17.30
2022-09-28T22:30:16.688Z,20.50
2022-09-28T22:33:23.797Z,17.90
2022-09-28T22:36:31.527Z,20.40
2022-09-28T22:39:39.110Z,19.20
2022-09-28T22:42:46.361Z,16.70
2022-09-28T22:45:57.554Z,20.70
2022-09-28T22:48:56.125Z,17.20
2022-09-28T22:52:03.369Z,13.90
2022-09-28T22:55:11.243Z,14.00
2022-09-28T22:58:18.464Z,15.90
2022-09-28T23:01:26.277Z,11.70
2022-09-28T23:04:34.096Z,12.60
2022-09-28T23:07:41.187Z,12.60
2022-09-28T23:10:48.937Z,12.90
2022-09-28T23:13:57.067Z,11.90
2022-09-28T23:17:04.296Z,13.80
2022-09-28T23:20:12.531Z,17.90
2022-09-28T23:23:19.699Z,18.00
2022-09-28T23:26:27.830Z,18.90
2022-09-28T23:29:36.041Z,18.20
2022-09-28T23:32:43.241Z,20.30
2022-09-28T23:35:51.081Z,20.00
2022-09-28T23:38:59.177Z,17.50
2022-09-28T23:42:06.322Z,15.80
2022-09-28T23:45:14.154Z,18.60
2022-09-28T23:48:22.045Z,19.50
2022-09-28T23:51:29.195Z,15.00
2022-09-28T23:54:37.135Z,15.40
2022-09-28T23:57:44.547Z,16.90
